QFA136 YBCS-YBSU
Flight info
| Callsign | QFA136 |
|---|---|
| Flight time | N/A |
| Altitude | 37000 |
| Route | AKROM Y177 RUROX/N0359F190 W727 SUSGI W534 SEBVA |
| Aircraft | B738/M-SDE2E3FGHIRWXY/LB1 |
Departure
| Time | 2026-04-27 10:01 |
|---|---|
| Airport | Cairns International Airport (YBCS) |
Arrival
| Time | N/A |
|---|---|
| Airport | Sunshine Coast Airport (YBSU) |
| Time | Latitude | Longitude | Altitude | Speed | Heading |
|---|---|---|---|---|---|
| 2026-04-27 09:44 | -16.87591 | 145.75197 | 15 ft | 0 kts | 64° |
| 2026-04-27 09:51 | -16.87597 | 145.75185 | 15 ft | 2 kts | 61° |
| 2026-04-27 09:51 | -16.87605 | 145.75170 | 15 ft | 2 kts | 57° |
| 2026-04-27 09:52 | -16.87615 | 145.75155 | 17 ft | 2 kts | 51° |
| 2026-04-27 09:52 | -16.87626 | 145.75143 | 15 ft | 2 kts | 40° |
| 2026-04-27 09:52 | -16.87640 | 145.75133 | 15 ft | 2 kts | 18° |
| 2026-04-27 09:52 | -16.87656 | 145.75131 | 17 ft | 2 kts | 347° |
| 2026-04-27 09:53 | -16.87664 | 145.75134 | 18 ft | 0 kts | 339° |
| 2026-04-27 09:54 | -16.87659 | 145.75124 | 17 ft | 5 kts | 291° |
| 2026-04-27 09:55 | -16.87659 | 145.75066 | 15 ft | 9 kts | 271° |
| 2026-04-27 09:55 | -16.87620 | 145.75020 | 16 ft | 9 kts | 333° |
| 2026-04-27 09:55 | -16.87469 | 145.74955 | 16 ft | 16 kts | 337° |
| 2026-04-27 09:56 | -16.87364 | 145.74905 | 16 ft | 17 kts | 336° |
| 2026-04-27 09:56 | -16.87244 | 145.74852 | 15 ft | 18 kts | 335° |
| 2026-04-27 09:56 | -16.87129 | 145.74798 | 18 ft | 18 kts | 335° |
| 2026-04-27 09:56 | -16.87054 | 145.74745 | 15 ft | 11 kts | 297° |
| 2026-04-27 09:57 | -16.87053 | 145.74703 | 15 ft | 0 kts | 251° |
| 2026-04-27 09:59 | -16.87053 | 145.74702 | 15 ft | 1 kts | 251° |
| 2026-04-27 09:59 | -16.87066 | 145.74668 | 16 ft | 8 kts | 245° |
| 2026-04-27 10:00 | -16.87122 | 145.74622 | 13 ft | 12 kts | 195° |
| 2026-04-27 10:00 | -16.87191 | 145.74630 | 16 ft | 0 kts | 157° |
| 2026-04-27 10:00 | -16.87195 | 145.74632 | 16 ft | 0 kts | 155° |
| 2026-04-27 10:01 | -16.87381 | 145.74720 | 18 ft | 67 kts | 156° |
| 2026-04-27 10:01 | -16.88035 | 145.75014 | 17 ft | 135 kts | 156° |
| 2026-04-27 10:01 | -16.89043 | 145.75481 | 229 ft | 174 kts | 158° |
| 2026-04-27 10:01 | -16.90128 | 145.76101 | 1057 ft | 181 kts | 143° |
| 2026-04-27 10:02 | -16.90704 | 145.77208 | 2091 ft | 182 kts | 97° |
| 2026-04-27 10:02 | -16.90282 | 145.78507 | 2851 ft | 201 kts | 52° |
| 2026-04-27 10:02 | -16.89199 | 145.79486 | 3689 ft | 211 kts | 44° |
| 2026-04-27 10:02 | -16.88035 | 145.80414 | 4530 ft | 209 kts | 43° |
| 2026-04-27 10:03 | -16.86865 | 145.81326 | 5289 ft | 210 kts | 42° |
| 2026-04-27 10:03 | -16.85690 | 145.82237 | 5980 ft | 210 kts | 41° |
| 2026-04-27 10:03 | -16.84690 | 145.83315 | 6594 ft | 206 kts | 69° |
| 2026-04-27 10:03 | -16.84448 | 145.84812 | 6838 ft | 222 kts | 102° |
| 2026-04-27 10:04 | -16.85132 | 145.86292 | 7106 ft | 240 kts | 134° |
| 2026-04-27 10:04 | -16.86519 | 145.87421 | 7457 ft | 263 kts | 147° |
| 2026-04-27 10:04 | -16.88111 | 145.88420 | 8204 ft | 269 kts | 149° |
| 2026-04-27 10:04 | -16.89751 | 145.89396 | 9015 ft | 275 kts | 149° |
| 2026-04-27 10:05 | -16.91427 | 145.90391 | 9786 ft | 280 kts | 149° |
| 2026-04-27 10:05 | -16.93138 | 145.91415 | 10423 ft | 290 kts | 150° |
| 2026-04-27 10:05 | -16.94960 | 145.92511 | 10634 ft | 315 kts | 150° |
| 2026-04-27 10:05 | -16.96916 | 145.93697 | 11002 ft | 332 kts | 151° |
| 2026-04-27 10:06 | -16.98916 | 145.94917 | 11551 ft | 342 kts | 152° |
| 2026-04-27 10:06 | -17.01009 | 145.96199 | 12232 ft | 347 kts | 152° |
| 2026-04-27 10:06 | -17.03113 | 145.97487 | 12857 ft | 354 kts | 152° |
| 2026-04-27 10:06 | -17.05224 | 145.98778 | 13500 ft | 359 kts | 153° |
| 2026-04-27 10:07 | -17.07392 | 146.00109 | 14097 ft | 364 kts | 153° |
| 2026-04-27 10:07 | -17.09586 | 146.01459 | 14704 ft | 368 kts | 153° |
| 2026-04-27 10:07 | -17.11794 | 146.02822 | 15324 ft | 371 kts | 153° |
| 2026-04-27 10:07 | -17.14027 | 146.04203 | 15931 ft | 374 kts | 153° |
| 2026-04-27 10:08 | -17.16275 | 146.05595 | 16531 ft | 377 kts | 152° |
| 2026-04-27 10:08 | -17.18540 | 146.06999 | 17127 ft | 381 kts | 152° |
| 2026-04-27 10:08 | -17.20830 | 146.08418 | 17710 ft | 384 kts | 152° |
| 2026-04-27 10:08 | -17.23144 | 146.09853 | 18294 ft | 388 kts | 152° |
| 2026-04-27 10:09 | -17.25473 | 146.11298 | 18796 ft | 391 kts | 152° |
| 2026-04-27 10:09 | -17.27820 | 146.12755 | 19317 ft | 394 kts | 152° |
| 2026-04-27 10:09 | -17.30188 | 146.14225 | 19802 ft | 397 kts | 152° |
| 2026-04-27 10:09 | -17.32573 | 146.15706 | 20292 ft | 401 kts | 152° |
| 2026-04-27 10:10 | -17.34984 | 146.17203 | 20772 ft | 404 kts | 152° |
| 2026-04-27 10:10 | -17.37410 | 146.18710 | 21265 ft | 407 kts | 152° |
| 2026-04-27 10:10 | -17.39859 | 146.20233 | 21747 ft | 411 kts | 152° |
| 2026-04-27 10:10 | -17.42327 | 146.21767 | 22208 ft | 414 kts | 152° |
| 2026-04-27 10:11 | -17.44763 | 146.23281 | 22672 ft | 418 kts | 152° |
| 2026-04-27 10:11 | -17.47328 | 146.24877 | 23130 ft | 422 kts | 152° |
| 2026-04-27 10:11 | -17.49859 | 146.26452 | 23575 ft | 425 kts | 152° |
| 2026-04-27 10:11 | -17.52412 | 146.28041 | 23961 ft | 428 kts | 152° |
| 2026-04-27 10:12 | -17.54977 | 146.29639 | 24365 ft | 430 kts | 152° |
| 2026-04-27 10:12 | -17.57556 | 146.31246 | 24766 ft | 432 kts | 152° |
| 2026-04-27 10:12 | -17.60148 | 146.32861 | 25152 ft | 435 kts | 152° |
| 2026-04-27 10:12 | -17.62757 | 146.34487 | 25539 ft | 437 kts | 152° |
| 2026-04-27 10:13 | -17.65378 | 146.36122 | 25915 ft | 440 kts | 152° |
| 2026-04-27 10:13 | -17.68016 | 146.37767 | 26283 ft | 442 kts | 152° |
| 2026-04-27 10:13 | -17.70669 | 146.39422 | 26662 ft | 445 kts | 152° |
| 2026-04-27 10:13 | -17.73334 | 146.41086 | 27029 ft | 447 kts | 152° |
| 2026-04-27 10:14 | -17.75982 | 146.42739 | 27375 ft | 449 kts | 153° |
| 2026-04-27 10:14 | -17.78674 | 146.44421 | 27728 ft | 452 kts | 153° |
| 2026-04-27 10:14 | -17.81381 | 146.46112 | 28070 ft | 454 kts | 153° |
| 2026-04-27 10:14 | -17.84104 | 146.47814 | 28405 ft | 457 kts | 153° |
| 2026-04-27 10:15 | -17.86830 | 146.49518 | 28734 ft | 459 kts | 153° |
| 2026-04-27 10:15 | -17.89595 | 146.51248 | 29052 ft | 462 kts | 153° |
| 2026-04-27 10:15 | -17.92361 | 146.52979 | 29374 ft | 464 kts | 153° |
| 2026-04-27 10:15 | -17.95138 | 146.54717 | 29688 ft | 466 kts | 153° |
| 2026-04-27 10:16 | -17.97933 | 146.56468 | 30008 ft | 469 kts | 153° |
| 2026-04-27 10:16 | -18.00738 | 146.58225 | 30263 ft | 471 kts | 153° |
| 2026-04-27 10:16 | -18.03603 | 146.60020 | 30503 ft | 474 kts | 153° |
| 2026-04-27 10:16 | -18.06400 | 146.61774 | 30728 ft | 476 kts | 153° |
| 2026-04-27 10:17 | -18.09250 | 146.63561 | 30955 ft | 479 kts | 153° |
| 2026-04-27 10:17 | -18.12160 | 146.65386 | 31151 ft | 482 kts | 153° |
| 2026-04-27 10:17 | -18.15048 | 146.67199 | 31374 ft | 484 kts | 153° |
| 2026-04-27 10:17 | -18.17941 | 146.69017 | 31667 ft | 485 kts | 153° |
| 2026-04-27 10:18 | -18.20831 | 146.70834 | 32020 ft | 484 kts | 153° |
| 2026-04-27 10:18 | -18.23717 | 146.72649 | 32311 ft | 484 kts | 153° |
| 2026-04-27 10:18 | -18.26613 | 146.74469 | 32578 ft | 485 kts | 153° |
| 2026-04-27 10:18 | -18.29512 | 146.76293 | 32862 ft | 485 kts | 153° |
| 2026-04-27 10:19 | -18.32406 | 146.78114 | 33165 ft | 485 kts | 153° |
| 2026-04-27 10:19 | -18.35309 | 146.79940 | 33440 ft | 486 kts | 153° |
| 2026-04-27 10:19 | -18.38217 | 146.81726 | 33728 ft | 485 kts | 155° |
| 2026-04-27 10:19 | -18.41167 | 146.83467 | 34012 ft | 485 kts | 155° |
| 2026-04-27 10:20 | -18.44069 | 146.85151 | 34254 ft | 485 kts | 156° |
| 2026-04-27 10:20 | -18.47034 | 146.86864 | 34439 ft | 486 kts | 156° |
| 2026-04-27 10:20 | -18.50006 | 146.88586 | 34654 ft | 487 kts | 156° |
| 2026-04-27 10:20 | -18.53014 | 146.90338 | 34903 ft | 487 kts | 156° |
| 2026-04-27 10:21 | -18.55961 | 146.92062 | 35118 ft | 488 kts | 156° |
| 2026-04-27 10:21 | -18.58937 | 146.93809 | 35321 ft | 489 kts | 156° |
| 2026-04-27 10:21 | -18.61876 | 146.95537 | 35541 ft | 489 kts | 156° |
| 2026-04-27 10:21 | -18.64841 | 146.97283 | 35787 ft | 488 kts | 156° |
| 2026-04-27 10:22 | -18.67795 | 146.99024 | 36000 ft | 489 kts | 156° |
| 2026-04-27 10:22 | -18.70615 | 147.00686 | 36194 ft | 489 kts | 156° |
| 2026-04-27 10:22 | -18.73376 | 147.02313 | 36400 ft | 489 kts | 156° |
| 2026-04-27 10:22 | -18.75652 | 147.03654 | 36587 ft | 488 kts | 156° |
| 2026-04-27 10:23 | -18.77652 | 147.04834 | 36747 ft | 488 kts | 157° |
| 2026-04-27 10:23 | -18.79912 | 147.06167 | 36908 ft | 488 kts | 157° |
| 2026-04-27 10:23 | -18.84408 | 147.08818 | 37016 ft | 489 kts | 157° |
| 2026-04-27 10:24 | -18.90336 | 147.12319 | 37035 ft | 487 kts | 157° |
| 2026-04-27 10:24 | -18.96239 | 147.15808 | 37030 ft | 485 kts | 157° |
| 2026-04-27 10:25 | -19.00667 | 147.18426 | 37031 ft | 484 kts | 157° |
| 2026-04-27 10:25 | -19.05195 | 147.21105 | 37028 ft | 483 kts | 157° |
| 2026-04-27 10:26 | -19.07890 | 147.22703 | 37032 ft | 482 kts | 157° |
| 2026-04-27 10:26 | -19.12567 | 147.25472 | 37031 ft | 481 kts | 157° |
| 2026-04-27 10:27 | -19.18112 | 147.28756 | 37030 ft | 480 kts | 157° |
| 2026-04-27 10:27 | -19.18126 | 147.28765 | 37032 ft | 480 kts | 157° |
| 2026-04-27 10:28 | -19.18223 | 147.28822 | 37029 ft | 480 kts | 157° |
| 2026-04-27 10:28 | -19.18988 | 147.29276 | 37032 ft | 480 kts | 157° |
| 2026-04-27 10:29 | -19.19431 | 147.29538 | 37031 ft | 480 kts | 157° |
| 2026-04-27 10:29 | -19.24613 | 147.32617 | 37036 ft | 479 kts | 157° |
| 2026-04-27 10:30 | -19.25847 | 147.33349 | 37035 ft | 479 kts | 157° |
| 2026-04-27 10:30 | -19.26767 | 147.33894 | 37033 ft | 479 kts | 157° |
| 2026-04-27 10:31 | -19.26895 | 147.33970 | 37035 ft | 479 kts | 157° |
| 2026-04-27 10:31 | -19.29619 | 147.35586 | 37033 ft | 479 kts | 157° |
| 2026-04-27 10:32 | -19.31682 | 147.36811 | 37033 ft | 480 kts | 157° |
| 2026-04-27 10:32 | -19.36645 | 147.39760 | 37044 ft | 480 kts | 157° |
| 2026-04-27 10:33 | -19.42432 | 147.43200 | 37044 ft | 481 kts | 157° |
| 2026-04-27 10:33 | -19.48063 | 147.46550 | 37048 ft | 483 kts | 157° |
| 2026-04-27 10:34 | -19.51120 | 147.48372 | 37047 ft | 483 kts | 157° |
| 2026-04-27 10:34 | -19.56414 | 147.51529 | 37042 ft | 485 kts | 157° |
| 2026-04-27 10:35 | -19.60106 | 147.53731 | 37046 ft | 485 kts | 157° |
| 2026-04-27 10:35 | -19.62976 | 147.55444 | 37045 ft | 486 kts | 157° |
| 2026-04-27 10:36 | -19.66319 | 147.57434 | 37044 ft | 487 kts | 158° |
| 2026-04-27 10:36 | -19.70186 | 147.59746 | 37047 ft | 487 kts | 157° |
| 2026-04-27 10:37 | -19.72964 | 147.61413 | 37044 ft | 488 kts | 157° |
| 2026-04-27 10:37 | -19.78423 | 147.64682 | 37046 ft | 488 kts | 158° |
| 2026-04-27 10:38 | -19.83447 | 147.67672 | 37051 ft | 489 kts | 158° |
| 2026-04-27 10:38 | -19.88842 | 147.70888 | 37039 ft | 489 kts | 158° |
| 2026-04-27 10:39 | -19.92956 | 147.73346 | 37050 ft | 489 kts | 158° |
| 2026-04-27 10:39 | -19.95702 | 147.74989 | 37066 ft | 489 kts | 158° |
| 2026-04-27 10:40 | -20.01256 | 147.78320 | 37056 ft | 489 kts | 158° |
| 2026-04-27 10:40 | -20.07131 | 147.81840 | 37054 ft | 488 kts | 158° |
| 2026-04-27 10:41 | -20.13092 | 147.85416 | 37061 ft | 488 kts | 158° |
| 2026-04-27 10:41 | -20.19001 | 147.88964 | 37063 ft | 487 kts | 158° |
| 2026-04-27 10:42 | -20.24904 | 147.92512 | 37069 ft | 487 kts | 158° |
| 2026-04-27 10:42 | -20.30772 | 147.96041 | 37074 ft | 487 kts | 158° |
| 2026-04-27 10:43 | -20.36639 | 147.99574 | 37072 ft | 487 kts | 158° |
| 2026-04-27 10:43 | -20.42584 | 148.03157 | 37068 ft | 487 kts | 158° |
| 2026-04-27 10:44 | -20.48388 | 148.06657 | 37073 ft | 487 kts | 158° |
| 2026-04-27 10:44 | -20.51965 | 148.08817 | 37073 ft | 487 kts | 158° |
| 2026-04-27 10:45 | -20.57873 | 148.12385 | 37086 ft | 487 kts | 158° |
| 2026-04-27 10:45 | -20.63751 | 148.15938 | 37084 ft | 486 kts | 158° |
| 2026-04-27 10:46 | -20.67262 | 148.18063 | 37074 ft | 487 kts | 158° |
| 2026-04-27 10:46 | -20.72269 | 148.21093 | 37075 ft | 487 kts | 158° |
| 2026-04-27 10:47 | -20.78156 | 148.24661 | 37088 ft | 487 kts | 158° |
| 2026-04-27 10:47 | -20.84050 | 148.28235 | 37085 ft | 487 kts | 158° |
| 2026-04-27 10:48 | -20.89941 | 148.31811 | 37092 ft | 487 kts | 157° |
| 2026-04-27 10:48 | -20.95834 | 148.35390 | 37084 ft | 487 kts | 157° |
| 2026-04-27 10:49 | -21.01587 | 148.38889 | 37102 ft | 487 kts | 157° |
| 2026-04-27 10:49 | -21.05655 | 148.41365 | 37100 ft | 487 kts | 157° |
| 2026-04-27 10:50 | -21.07299 | 148.42366 | 37105 ft | 487 kts | 157° |
| 2026-04-27 10:50 | -21.09688 | 148.43822 | 37099 ft | 487 kts | 157° |
| 2026-04-27 10:51 | -21.14505 | 148.46759 | 37102 ft | 486 kts | 157° |
| 2026-04-27 10:51 | -21.19074 | 148.49546 | 37100 ft | 486 kts | 157° |
| 2026-04-27 10:52 | -21.23152 | 148.52034 | 37105 ft | 485 kts | 157° |
| 2026-04-27 10:52 | -21.24922 | 148.53114 | 37111 ft | 485 kts | 157° |
| 2026-04-27 10:53 | -21.27775 | 148.54856 | 37097 ft | 485 kts | 157° |
| 2026-04-27 10:54 | -21.30740 | 148.56667 | 37092 ft | 484 kts | 157° |
| 2026-04-27 10:54 | -21.31164 | 148.56927 | 37092 ft | 484 kts | 157° |
| 2026-04-27 10:55 | -21.32701 | 148.57866 | 37097 ft | 484 kts | 157° |
| 2026-04-27 10:55 | -21.34784 | 148.59150 | 37114 ft | 484 kts | 156° |
| 2026-04-27 10:56 | -21.37431 | 148.60792 | 37095 ft | 484 kts | 157° |
| 2026-04-27 10:56 | -21.38018 | 148.61152 | 37092 ft | 483 kts | 158° |
| 2026-04-27 10:57 | -21.43338 | 148.64397 | 37128 ft | 483 kts | 158° |
| 2026-04-27 10:57 | -21.47038 | 148.66651 | 37105 ft | 483 kts | 158° |
| 2026-04-27 10:58 | -21.48112 | 148.67306 | 37111 ft | 483 kts | 158° |
| 2026-04-27 10:58 | -21.49552 | 148.68186 | 37140 ft | 483 kts | 158° |
| 2026-04-27 10:59 | -21.53296 | 148.70477 | 37108 ft | 483 kts | 158° |
| 2026-04-27 10:59 | -21.55568 | 148.71870 | 37123 ft | 483 kts | 158° |
| 2026-04-27 11:00 | -21.60528 | 148.74914 | 37119 ft | 484 kts | 157° |
| 2026-04-27 11:00 | -21.66040 | 148.78300 | 37121 ft | 484 kts | 157° |
| 2026-04-27 11:01 | -21.70172 | 148.80842 | 37115 ft | 484 kts | 157° |
| 2026-04-27 11:01 | -21.70868 | 148.81270 | 37116 ft | 484 kts | 157° |
| 2026-04-27 11:02 | -21.71302 | 148.81536 | 37118 ft | 484 kts | 158° |
| 2026-04-27 11:02 | -21.74177 | 148.83301 | 37121 ft | 484 kts | 157° |
| 2026-04-27 11:03 | -21.76572 | 148.84775 | 37110 ft | 484 kts | 157° |
| 2026-04-27 11:03 | -21.77537 | 148.85369 | 37113 ft | 484 kts | 157° |
| 2026-04-27 11:04 | -21.80452 | 148.87166 | 37119 ft | 484 kts | 157° |
| 2026-04-27 11:04 | -21.81083 | 148.87555 | 37118 ft | 484 kts | 157° |
| 2026-04-27 11:05 | -21.81197 | 148.87625 | 37119 ft | 484 kts | 157° |
| 2026-04-27 11:05 | -21.82704 | 148.88556 | 37110 ft | 485 kts | 157° |
| 2026-04-27 11:06 | -21.87449 | 148.91483 | 37114 ft | 484 kts | 157° |
| 2026-04-27 11:06 | -21.92164 | 148.94393 | 37110 ft | 483 kts | 157° |
| 2026-04-27 11:07 | -21.96416 | 148.97018 | 37111 ft | 482 kts | 157° |
| 2026-04-27 11:07 | -22.02232 | 149.00613 | 37110 ft | 481 kts | 157° |
| 2026-04-27 11:08 | -22.08024 | 149.04195 | 37109 ft | 480 kts | 157° |
| 2026-04-27 11:08 | -22.13822 | 149.07785 | 37111 ft | 479 kts | 157° |
| 2026-04-27 11:09 | -22.19594 | 149.11362 | 37119 ft | 479 kts | 156° |
| 2026-04-27 11:09 | -22.25374 | 149.14947 | 37116 ft | 479 kts | 156° |
| 2026-04-27 11:10 | -22.31151 | 149.18533 | 37117 ft | 479 kts | 156° |
| 2026-04-27 11:10 | -22.36927 | 149.22124 | 37126 ft | 479 kts | 156° |
| 2026-04-27 11:11 | -22.42700 | 149.25715 | 37110 ft | 479 kts | 156° |
| 2026-04-27 11:11 | -22.48473 | 149.29310 | 37124 ft | 479 kts | 156° |
| 2026-04-27 11:12 | -22.54237 | 149.32903 | 37121 ft | 478 kts | 156° |
| 2026-04-27 11:12 | -22.59034 | 149.35897 | 37131 ft | 478 kts | 156° |
| 2026-04-27 11:13 | -22.64797 | 149.39495 | 37121 ft | 479 kts | 156° |
| 2026-04-27 11:13 | -22.70564 | 149.43100 | 37120 ft | 478 kts | 156° |
| 2026-04-27 11:14 | -22.76330 | 149.46708 | 37126 ft | 479 kts | 156° |
| 2026-04-27 11:14 | -22.82097 | 149.50319 | 37125 ft | 479 kts | 156° |
| 2026-04-27 11:15 | -22.87732 | 149.53852 | 37133 ft | 479 kts | 156° |
| 2026-04-27 11:15 | -22.93289 | 149.57340 | 37127 ft | 480 kts | 156° |
| 2026-04-27 11:16 | -22.97142 | 149.59770 | 37128 ft | 480 kts | 156° |
| 2026-04-27 11:16 | -23.02739 | 149.63283 | 37131 ft | 480 kts | 156° |
| 2026-04-27 11:17 | -23.08523 | 149.66920 | 37122 ft | 480 kts | 156° |
| 2026-04-27 11:17 | -23.14294 | 149.70565 | 37134 ft | 480 kts | 155° |
| 2026-04-27 11:18 | -23.20076 | 149.74223 | 37128 ft | 480 kts | 155° |
| 2026-04-27 11:18 | -23.25845 | 149.77876 | 37135 ft | 480 kts | 155° |
| 2026-04-27 11:19 | -23.31621 | 149.81535 | 37133 ft | 480 kts | 155° |
| 2026-04-27 11:19 | -23.37395 | 149.85198 | 37131 ft | 480 kts | 155° |
| 2026-04-27 11:20 | -23.43162 | 149.88859 | 37137 ft | 480 kts | 155° |
| 2026-04-27 11:20 | -23.48929 | 149.92525 | 37133 ft | 480 kts | 155° |
| 2026-04-27 11:21 | -23.54683 | 149.96185 | 37138 ft | 479 kts | 155° |
| 2026-04-27 11:21 | -23.60444 | 149.99855 | 37137 ft | 479 kts | 155° |
| 2026-04-27 11:22 | -23.66198 | 150.03522 | 37135 ft | 479 kts | 155° |
| 2026-04-27 11:22 | -23.71948 | 150.07192 | 37141 ft | 479 kts | 155° |
| 2026-04-27 11:23 | -23.77707 | 150.10871 | 37144 ft | 479 kts | 155° |
| 2026-04-27 11:23 | -23.83458 | 150.14549 | 37143 ft | 479 kts | 155° |
| 2026-04-27 11:24 | -23.89212 | 150.18232 | 37147 ft | 479 kts | 155° |
| 2026-04-27 11:24 | -23.94964 | 150.21918 | 37146 ft | 479 kts | 155° |
| 2026-04-27 11:25 | -24.00716 | 150.25608 | 37149 ft | 479 kts | 155° |
| 2026-04-27 11:25 | -24.06467 | 150.29301 | 37147 ft | 479 kts | 155° |
| 2026-04-27 11:26 | -24.12212 | 150.32994 | 37154 ft | 479 kts | 155° |
| 2026-04-27 11:26 | -24.17963 | 150.36695 | 37152 ft | 479 kts | 155° |
| 2026-04-27 11:27 | -24.23714 | 150.40400 | 37167 ft | 479 kts | 155° |
| 2026-04-27 11:27 | -24.29460 | 150.44106 | 37158 ft | 479 kts | 155° |
| 2026-04-27 11:28 | -24.35089 | 150.48040 | 37152 ft | 485 kts | 144° |
| 2026-04-27 11:28 | -24.39920 | 150.53194 | 37174 ft | 489 kts | 138° |
| 2026-04-27 11:29 | -24.44673 | 150.58537 | 37176 ft | 489 kts | 138° |
| 2026-04-27 11:29 | -24.49448 | 150.63849 | 37173 ft | 489 kts | 139° |
| 2026-04-27 11:30 | -24.54251 | 150.69136 | 37179 ft | 488 kts | 139° |
| 2026-04-27 11:30 | -24.59052 | 150.74403 | 37177 ft | 488 kts | 139° |
| 2026-04-27 11:31 | -24.63851 | 150.79673 | 37184 ft | 487 kts | 139° |
| 2026-04-27 11:31 | -24.68643 | 150.84945 | 37184 ft | 487 kts | 139° |
| 2026-04-27 11:32 | -24.73424 | 150.90213 | 37186 ft | 487 kts | 139° |
| 2026-04-27 11:32 | -24.78203 | 150.95485 | 37192 ft | 486 kts | 139° |
| 2026-04-27 11:33 | -24.82977 | 151.00757 | 37185 ft | 486 kts | 139° |
| 2026-04-27 11:33 | -24.87740 | 151.06024 | 37198 ft | 485 kts | 138° |
| 2026-04-27 11:34 | -24.92502 | 151.11295 | 37193 ft | 485 kts | 138° |
| 2026-04-27 11:34 | -24.97255 | 151.16562 | 37158 ft | 485 kts | 138° |
| 2026-04-27 11:35 | -24.99652 | 151.19219 | 36642 ft | 491 kts | 138° |
| 2026-04-27 11:35 | -25.02052 | 151.21882 | 36125 ft | 488 kts | 138° |
| 2026-04-27 11:35 | -25.04438 | 151.24533 | 35596 ft | 486 kts | 138° |
| 2026-04-27 11:35 | -25.06810 | 151.27170 | 35250 ft | 483 kts | 138° |
| 2026-04-27 11:36 | -25.09171 | 151.29797 | 34742 ft | 482 kts | 138° |
| 2026-04-27 11:36 | -25.11523 | 151.32414 | 34311 ft | 478 kts | 137° |
| 2026-04-27 11:36 | -25.13850 | 151.35005 | 33775 ft | 472 kts | 137° |
| 2026-04-27 11:36 | -25.16134 | 151.37551 | 33339 ft | 462 kts | 137° |
| 2026-04-27 11:37 | -25.18372 | 151.40047 | 32929 ft | 453 kts | 137° |
| 2026-04-27 11:37 | -25.20565 | 151.42493 | 32509 ft | 444 kts | 137° |
| 2026-04-27 11:37 | -25.22711 | 151.44889 | 32114 ft | 435 kts | 137° |
| 2026-04-27 11:37 | -25.24819 | 151.47240 | 31706 ft | 427 kts | 137° |
| 2026-04-27 11:38 | -25.26888 | 151.49550 | 31316 ft | 419 kts | 136° |
| 2026-04-27 11:38 | -25.28915 | 151.51814 | 30936 ft | 411 kts | 136° |
| 2026-04-27 11:38 | -25.30906 | 151.54038 | 30565 ft | 404 kts | 136° |
| 2026-04-27 11:38 | -25.32864 | 151.56228 | 30174 ft | 397 kts | 136° |
| 2026-04-27 11:39 | -25.34784 | 151.58376 | 29744 ft | 389 kts | 136° |
| 2026-04-27 11:39 | -25.36664 | 151.60480 | 29372 ft | 381 kts | 136° |
| 2026-04-27 11:39 | -25.38508 | 151.62545 | 28986 ft | 374 kts | 136° |
| 2026-04-27 11:39 | -25.40323 | 151.64579 | 28590 ft | 368 kts | 136° |
| 2026-04-27 11:40 | -25.42108 | 151.66580 | 28223 ft | 362 kts | 136° |
| 2026-04-27 11:40 | -25.43876 | 151.68561 | 27844 ft | 362 kts | 136° |
| 2026-04-27 11:40 | -25.45670 | 151.70572 | 27495 ft | 374 kts | 136° |
| 2026-04-27 11:40 | -25.47537 | 151.72666 | 27110 ft | 388 kts | 135° |
| 2026-04-27 11:41 | -25.49422 | 151.74782 | 26694 ft | 383 kts | 136° |
| 2026-04-27 11:41 | -25.51276 | 151.76865 | 26276 ft | 376 kts | 135° |
| 2026-04-27 11:41 | -25.53075 | 151.78889 | 25894 ft | 372 kts | 136° |
| 2026-04-27 11:41 | -25.54884 | 151.80924 | 25512 ft | 370 kts | 135° |
| 2026-04-27 11:42 | -25.56686 | 151.82952 | 25143 ft | 368 kts | 135° |
| 2026-04-27 11:42 | -25.58480 | 151.84971 | 24763 ft | 367 kts | 135° |
| 2026-04-27 11:42 | -25.60271 | 151.86988 | 24366 ft | 367 kts | 135° |
| 2026-04-27 11:42 | -25.62060 | 151.89004 | 23985 ft | 366 kts | 135° |
| 2026-04-27 11:43 | -25.63844 | 151.91013 | 23552 ft | 366 kts | 135° |
| 2026-04-27 11:43 | -25.65626 | 151.93023 | 23136 ft | 365 kts | 135° |
| 2026-04-27 11:43 | -25.67398 | 151.95023 | 22729 ft | 363 kts | 135° |
| 2026-04-27 11:43 | -25.69161 | 151.97014 | 22340 ft | 361 kts | 135° |
| 2026-04-27 11:44 | -25.70912 | 151.98991 | 21961 ft | 358 kts | 135° |
| 2026-04-27 11:44 | -25.72651 | 152.00956 | 21590 ft | 356 kts | 135° |
| 2026-04-27 11:44 | -25.74383 | 152.02913 | 21213 ft | 355 kts | 135° |
| 2026-04-27 11:44 | -25.76109 | 152.04864 | 20840 ft | 353 kts | 135° |
| 2026-04-27 11:45 | -25.77825 | 152.06805 | 20471 ft | 351 kts | 135° |
| 2026-04-27 11:45 | -25.78956 | 152.08085 | 20223 ft | 350 kts | 135° |
| 2026-04-27 11:45 | -25.81230 | 152.10659 | 19737 ft | 348 kts | 134° |
| 2026-04-27 11:45 | -25.82923 | 152.12577 | 19373 ft | 347 kts | 134° |
| 2026-04-27 11:46 | -25.84607 | 152.14485 | 18996 ft | 345 kts | 134° |
| 2026-04-27 11:46 | -25.86264 | 152.16364 | 18634 ft | 344 kts | 134° |
| 2026-04-27 11:46 | -25.87937 | 152.18261 | 18220 ft | 344 kts | 134° |
| 2026-04-27 11:46 | -25.89604 | 152.20153 | 17822 ft | 342 kts | 134° |
| 2026-04-27 11:47 | -25.91263 | 152.22036 | 17435 ft | 339 kts | 134° |
| 2026-04-27 11:47 | -25.92904 | 152.23900 | 17065 ft | 337 kts | 134° |
| 2026-04-27 11:47 | -25.94541 | 152.25760 | 16697 ft | 335 kts | 133° |
| 2026-04-27 11:47 | -25.96161 | 152.27600 | 16338 ft | 332 kts | 133° |
| 2026-04-27 11:48 | -25.97774 | 152.29435 | 15975 ft | 330 kts | 133° |
| 2026-04-27 11:48 | -25.99375 | 152.31257 | 15615 ft | 328 kts | 133° |
| 2026-04-27 11:48 | -26.00962 | 152.33062 | 15264 ft | 326 kts | 133° |
| 2026-04-27 11:48 | -26.02541 | 152.34860 | 14915 ft | 324 kts | 133° |
| 2026-04-27 11:49 | -26.04111 | 152.36648 | 14549 ft | 322 kts | 133° |
| 2026-04-27 11:49 | -26.05670 | 152.38425 | 14200 ft | 320 kts | 133° |
| 2026-04-27 11:49 | -26.07223 | 152.40196 | 13817 ft | 319 kts | 133° |
| 2026-04-27 11:49 | -26.08769 | 152.41958 | 13431 ft | 317 kts | 133° |
| 2026-04-27 11:50 | -26.10304 | 152.43709 | 13057 ft | 315 kts | 133° |
| 2026-04-27 11:50 | -26.11827 | 152.45447 | 12697 ft | 313 kts | 133° |
| 2026-04-27 11:50 | -26.13340 | 152.47174 | 12339 ft | 311 kts | 133° |
| 2026-04-27 11:50 | -26.14843 | 152.48891 | 11990 ft | 308 kts | 133° |
| 2026-04-27 11:51 | -26.16336 | 152.50598 | 11639 ft | 307 kts | 133° |
| 2026-04-27 11:51 | -26.17818 | 152.52292 | 11295 ft | 305 kts | 133° |
| 2026-04-27 11:51 | -26.20757 | 152.55654 | 10597 ft | 301 kts | 133° |
| 2026-04-27 11:52 | -26.22190 | 152.57295 | 10326 ft | 298 kts | 133° |
| 2026-04-27 11:52 | -26.23625 | 152.58937 | 10105 ft | 292 kts | 133° |
| 2026-04-27 11:52 | -26.25027 | 152.60543 | 9897 ft | 286 kts | 133° |
| 2026-04-27 11:52 | -26.26379 | 152.62091 | 9906 ft | 272 kts | 133° |
| 2026-04-27 11:53 | -26.27708 | 152.63614 | 9356 ft | 279 kts | 133° |
| 2026-04-27 11:53 | -26.29053 | 152.65171 | 8923 ft | 280 kts | 130° |
| 2026-04-27 11:53 | -26.30212 | 152.66910 | 8449 ft | 278 kts | 122° |
| 2026-04-27 11:53 | -26.31262 | 152.68714 | 7991 ft | 277 kts | 122° |
| 2026-04-27 11:54 | -26.32308 | 152.70503 | 7544 ft | 275 kts | 122° |
| 2026-04-27 11:54 | -26.33358 | 152.72270 | 7100 ft | 272 kts | 123° |
| 2026-04-27 11:54 | -26.34404 | 152.74023 | 6643 ft | 271 kts | 123° |
| 2026-04-27 11:54 | -26.35446 | 152.75759 | 6187 ft | 268 kts | 123° |